Warner, Canada
Current Conditions -  °F | °C
As of 10:00 PM on Tuesday 21 Oct 2014 (Local Time) from CYQL Reporting Station
Broken Clouds Broken Clouds  
Wind Chill: 50°   Ceiling: 21000
Heat Index: 50°   Visibility: 15mi
Dew Point: 34°   Wind: 18mph
Humidity: 54%   Direction: 260°W
Pressure: 29.78"   Gusts: 29mph
Location:  49.28°N, 112.2°W
Report Text: CYQL 220400Z 26016G25KT 15SM SCT080 BKN210 10/01 A2978 RMK AC3CI4 LAST STFD OBS/NXT 221200Z SLP089 DENSITY ALT 3300FT
Loading
Personal Weather Stations






























Interactive Weather Map
Tropical Storm Tracking
New forecast layout! Learn more

10-Day Weather Forecast

Advertisements
Track Severe Weather on mobile